Etusivu
METAR-TAF:

METAR-TAF

Lentoasemat :

Houston, Texas, Yhdysvallat

George Bushin kansainvälinen lentoasema

Leveyspiiri: 29-59-33N, Pituuspiiri: 095-21-50W, korkeus merenpinnasta: 29 m

Tämänhetkinen sää

Tämä raportti tehtiin 2 tuntia ja 56 minuuttia sitten, kello 09.53 UTC
Tuuli 3 kn pohjoisesta/koillisesta
Lämpötila 13°C
Kosteus 82%
Ilmanpaine 1009 hPa
Näkyvyys: 16.1 km
selkeää

METAR: KIAH 270953Z 03003KT 10SM CLR 13/10 A2980 RMK AO2 SLP092 T01330100

Aika: 07:49 (12:49 UTC)

Sääennuste

Tämä raportti tehtiin 3 tuntia ja 43 minuuttia sitten, kello 09.06 UTC
Ennuste voimassa 27. päivästä klo 09 UTC - 28. päivään klo 12 UTC
Tuuli 4 kn koillisesta
Näkyvyys: 10 km
selkeää
From 27. päivästä klo 1500 UTC
Tuuli 7 kn idästä/kaakosta
Näkyvyys: 10 km
selkeää
From 27. päivästä klo 2300 UTC
Tuuli 9 kn etelästä/kaakosta
Näkyvyys: 10 km
selkeää

TAF: KIAH 270906Z 2709/2812 05004KT P6SM SKC FM271500 12007KT P6SM SKC FM272300 15009KT P6SM SKC

Säähavainnot ja -ennusteet yli 4000 lentoasemalta (METAR- ja TAF-raportit).

Käytössä olevat sääasemat on merkitty karttaan keltaisilla ja punaisilla pisteillä.

Aseta hiiri pisteen päälle nähdäksesi sääaseman nimen.

Klikkaa sitten nähdäksesi säähavainnot ja -ennusteet.

Kartan vaihtaminen: klikkaa mustalla rastilla varustettuja vihreitä pisteitä, niin voit zoomata sisään; viivalla varustettua vihreää pistettä, niin voit zoomata ulos tai vihreitä nuolia, niin pääset viereisille kartoille.


METAR-TAF: